Time;durP1;ratioP1;P1;durP2;ratioP2;P2;SDS_P1;SDS_P2;PMS_P1;PMS_P2;Temp;Humidity;BMP_temperature;BMP_pressure;BME280_temperature;BME280_humidity;BME280_pressure;Samples;Min_cycle;Max_cycle;Signal;HPM_P1;HPM_P2
2021/05/25 00:02:16;;;;;;;2.33;0.50;;;12.50;86.80;;;;;;5026103;28;20369;-58
2021/05/25 00:04:41;;;;;;;;;;;12.50;87.00;;;;;;5027637;28;20065;-58
2021/05/25 00:07:07;;;;;;;1.42;0.52;;;12.50;86.90;;;;;;5027936;28;20360;-58
2021/05/25 00:09:32;;;;;;;;;;;12.40;86.60;;;;;;5028441;28;20390;-57
2021/05/25 00:11:58;;;;;;;0.82;0.40;;;12.40;87.00;;;;;;5027745;28;19988;-58
2021/05/25 00:14:23;;;;;;;;;;;12.30;86.90;;;;;;5028911;28;20029;-57
2021/05/25 00:16:50;;;;;;;0.60;0.32;;;12.30;86.60;;;;;;5026994;28;19920;-56
2021/05/25 00:19:16;;;;;;;0.43;0.43;;;12.30;87.70;;;;;;5024497;28;20082;-58
2021/05/25 00:21:42;;;;;;;1.15;0.50;;;12.30;87.60;;;;;;5026346;28;20077;-57
2021/05/25 00:24:07;;;;;;;;;;;12.20;87.40;;;;;;5027198;28;20068;-57
2021/05/25 00:26:33;;;;;;;1.35;0.30;;;12.20;86.80;;;;;;5027192;28;19909;-58
2021/05/25 00:28:58;;;;;;;;;;;12.10;86.80;;;;;;5027451;28;20083;-57
2021/05/25 00:31:24;;;;;;;6.25;0.63;;;12.20;87.60;;;;;;5027512;28;19987;-57
2021/05/25 00:33:49;;;;;;;;;;;12.20;87.70;;;;;;5028321;28;20450;-57
2021/05/25 00:36:15;;;;;;;0.98;0.47;;;12.20;87.70;;;;;;5042371;28;19954;-56
2021/05/25 00:38:40;;;;;;;;;;;12.20;87.70;;;;;;5028079;28;20036;-57
2021/05/25 00:41:06;;;;;;;0.50;0.40;;;12.20;87.90;;;;;;5024333;28;19924;-57
2021/05/25 00:43:31;;;;;;;;;;;12.20;87.50;;;;;;5027117;28;20025;-58
2021/05/25 00:45:57;;;;;;;3.33;0.40;;;12.20;87.80;;;;;;5025914;28;20297;-57
2021/05/25 00:48:22;;;;;;;;;;;12.10;87.60;;;;;;5025159;28;20026;-57
2021/05/25 00:50:48;;;;;;;1.05;0.50;;;12.00;87.20;;;;;;5025018;28;19916;-58
2021/05/25 00:53:13;;;;;;;;;;;11.90;88.00;;;;;;5025381;28;20027;-57
2021/05/25 00:55:40;;;;;;;1.10;0.40;;;11.80;87.80;;;;;;5024842;28;20381;-57
2021/05/25 00:58:09;;;;;;;0.50;0.40;;;11.80;88.00;;;;;;5023263;28;20670;-57
2021/05/25 01:00:46;;;;;;;0.45;0.35;;;11.80;87.70;;;;;;5022545;28;20025;-58
2021/05/25 01:03:20;;;;;;;0.60;0.40;;;11.60;86.30;;;;;;5038067;28;20033;-58
2021/05/25 01:05:47;;;;;;;1.05;0.57;;;11.40;87.00;;;;;;5021293;28;20034;-57
2021/05/25 01:08:13;;;;;;;1.83;0.55;;;11.30;87.70;;;;;;5012623;28;20585;-58
2021/05/25 01:10:52;;;;;;;1.38;0.40;;;11.30;88.00;;;;;;5027417;28;20108;-57
2021/05/25 01:13:20;;;;;;;0.85;0.57;;;11.20;88.00;;;;;;5023209;28;20030;-57
2021/05/25 01:15:47;;;;;;;0.50;0.32;;;11.20;88.50;;;;;;5025796;28;20088;-57
2021/05/25 01:18:13;;;;;;;4.32;0.63;;;11.20;88.90;;;;;;5023570;28;20040;-58
2021/05/25 01:20:39;;;;;;;;;;;11.30;88.10;;;;;;5022939;28;20026;-56
2021/05/25 01:23:08;;;;;;;1.90;0.32;;;11.30;88.90;;;;;;5025365;28;19956;-57
2021/05/25 01:25:34;;;;;;;1.30;0.40;;;11.40;89.10;;;;;;5026304;28;20537;-57
2021/05/25 01:28:03;;;;;;;1.33;0.52;;;11.50;88.90;;;;;;5023751;28;20026;-58
2021/05/25 01:30:32;;;;;;;2.25;0.60;;;11.50;89.20;;;;;;5021898;28;20587;-57
2021/05/25 01:32:59;;;;;;;1.70;0.47;;;11.50;88.30;;;;;;5027271;28;20549;-58
2021/05/25 01:35:25;;;;;;;1.55;0.60;;;11.50;88.20;;;;;;5022996;28;20044;-57
2021/05/25 01:37:53;;;;;;;1.23;0.40;;;11.50;88.30;;;;;;5025378;28;20052;-57
2021/05/25 01:40:19;;;;;;;1.30;0.47;;;11.50;87.70;;;;;;5024175;28;20034;-57
2021/05/25 01:42:45;;;;;;;1.20;0.50;;;11.50;88.30;;;;;;5025386;28;20048;-58
2021/05/25 01:45:12;;;;;;;;;;;11.50;88.50;;;;;;5025265;28;20626;-58
2021/05/25 01:47:38;;;;;;;3.33;0.65;;;11.50;88.20;;;;;;5026295;28;19913;-57
2021/05/25 01:50:13;;;;;;;;;;;11.50;88.10;;;;;;5021928;28;20454;-58
2021/05/25 01:52:48;;;;;;;2.15;0.80;;;11.50;87.90;;;;;;5023581;28;19913;-58
2021/05/25 01:55:23;;;;;;;2.42;0.60;;;11.60;87.20;;;;;;5020031;28;20436;-58
2021/05/25 01:57:48;;;;;;;1.25;0.30;;;11.70;87.00;;;;;;5023899;28;20401;-58
2021/05/25 02:00:14;;;;;;;;;;;11.80;86.90;;;;;;5023527;28;20029;-58
2021/05/25 02:02:39;;;;;;;8.85;5.28;;;11.80;86.20;;;;;;5025788;28;20003;-56
2021/05/25 02:05:06;;;;;;;;;;;11.90;85.40;;;;;;5025716;28;20026;-58
2021/05/25 02:07:31;;;;;;;2.92;1.33;;;12.00;85.40;;;;;;5026101;28;20305;-58
2021/05/25 02:09:57;;;;;;;;;;;12.00;85.00;;;;;;5040866;28;20022;-56
2021/05/25 02:12:22;;;;;;;3.53;1.63;;;12.00;85.20;;;;;;5022558;28;19909;-56
2021/05/25 02:14:48;;;;;;;;;;;12.00;85.10;;;;;;5024254;28;20034;-57
2021/05/25 02:17:13;;;;;;;2.20;1.08;;;12.00;85.20;;;;;;5025378;28;19912;-58
2021/05/25 02:19:39;;;;;;;;;;;12.00;85.10;;;;;;5023621;28;20030;-57
2021/05/25 02:22:04;;;;;;;0.75;0.68;;;12.00;84.80;;;;;;5021296;28;19923;-58
2021/05/25 02:24:30;;;;;;;;;;;12.00;84.70;;;;;;5024737;28;20116;-58
2021/05/25 02:26:55;;;;;;;1.40;0.45;;;12.10;84.40;;;;;;5040487;28;19920;-56
2021/05/25 02:29:21;;;;;;;;;;;12.10;84.00;;;;;;5020055;28;20044;-57
2021/05/25 02:31:46;;;;;;;0.45;0.35;;;12.10;83.70;;;;;;5021936;28;19936;-58
2021/05/25 02:34:12;;;;;;;;;;;12.10;84.10;;;;;;5025943;28;20075;-58
2021/05/25 02:36:37;;;;;;;0.38;0.30;;;12.00;83.60;;;;;;5024037;28;20314;-58
2021/05/25 02:39:04;;;;;;;;;;;12.00;83.40;;;;;;5024288;28;20107;-58
2021/05/25 02:41:30;;;;;;;2.08;0.40;;;12.00;83.40;;;;;;5021669;28;19917;-58
2021/05/25 02:43:55;;;;;;;;;;;12.00;83.10;;;;;;5024901;28;20033;-58
2021/05/25 02:46:21;;;;;;;1.00;0.75;;;12.00;83.20;;;;;;5019118;28;19917;-58
2021/05/25 02:48:46;;;;;;;;;;;11.90;83.10;;;;;;5022695;28;20034;-57
2021/05/25 02:51:12;;;;;;;1.65;0.43;;;11.90;83.10;;;;;;5022951;28;19913;-57
2021/05/25 02:53:37;;;;;;;;;;;11.90;83.50;;;;;;5022856;28;20036;-58
2021/05/25 02:56:03;;;;;;;0.80;0.22;;;11.90;83.10;;;;;;5024103;28;19919;-57
2021/05/25 02:58:28;;;;;;;;;;;11.80;83.10;;;;;;5023561;28;20052;-57
2021/05/25 03:00:54;;;;;;;1.17;0.30;;;11.80;82.90;;;;;;5023402;28;19951;-56
2021/05/25 03:03:19;;;;;;;;;;;11.80;82.50;;;;;;5025874;28;20071;-58
2021/05/25 03:05:46;;;;;;;1.40;0.40;;;11.80;82.80;;;;;;5021923;28;19913;-57
2021/05/25 03:08:14;;;;;;;0.60;0.30;;;11.70;82.60;;;;;;5022638;28;20640;-58
2021/05/25 03:10:45;;;;;;;1.85;0.30;;;11.80;82.60;;;;;;5024541;28;20108;-57
2021/05/25 03:13:11;;;;;;;0.75;0.40;;;11.80;82.50;;;;;;5025708;28;20037;-57
2021/05/25 03:15:42;;;;;;;1.58;0.28;;;11.80;82.40;;;;;;5023403;28;20030;-57
2021/05/25 03:18:10;;;;;;;1.15;0.25;;;11.80;82.70;;;;;;5021005;28;20091;-58
2021/05/25 03:20:36;;;;;;;0.90;0.30;;;11.70;82.30;;;;;;5025589;28;20024;-58
2021/05/25 03:23:04;;;;;;;2.20;0.32;;;11.70;81.80;;;;;;5024237;28;20104;-57
2021/05/25 03:25:30;;;;;;;1.23;0.35;;;11.60;82.10;;;;;;5024793;28;20029;-57
2021/05/25 03:27:56;;;;;;;;;;;11.60;82.20;;;;;;5024192;28;20029;-57
2021/05/25 03:30:24;;;;;;;1.02;0.40;;;11.50;82.00;;;;;;5023465;28;19979;-57
2021/05/25 03:32:52;;;;;;;1.55;0.20;;;11.50;82.10;;;;;;5024696;28;20047;-57
2021/05/25 03:35:21;;;;;;;0.32;0.20;;;11.40;82.30;;;;;;5022504;28;20029;-58
2021/05/25 03:37:47;;;;;;;1.92;0.40;;;11.40;81.90;;;;;;5023821;28;20055;-58
2021/05/25 03:40:14;;;;;;;0.60;0.25;;;11.40;81.50;;;;;;5022398;28;20079;-58
2021/05/25 03:42:44;;;;;;;1.13;0.40;;;11.30;81.10;;;;;;5024531;28;20117;-57
2021/05/25 03:45:10;;;;;;;3.03;0.30;;;11.20;81.20;;;;;;5021719;28;20056;-56
2021/05/25 03:47:35;;;;;;;;;;;11.20;81.60;;;;;;5022896;28;20525;-57
2021/05/25 03:50:07;;;;;;;1.92;0.20;;;11.20;82.20;;;;;;5021200;28;20611;-58
2021/05/25 03:52:34;;;;;;;1.45;0.30;;;11.10;81.30;;;;;;5021583;28;20149;-58
2021/05/25 03:55:02;;;;;;;3.15;0.32;;;11.20;81.60;;;;;;5021229;28;20563;-58
2021/05/25 03:59:53;;;;;;;;;;;11.20;81.80;;;;;;5022678;28;20546;-56
2021/05/25 04:02:19;;;;;;;0.93;0.30;;;11.20;81.20;;;;;;5021790;28;19984;-58
2021/05/25 04:04:44;;;;;;;;;;;11.30;81.20;;;;;;5024441;28;20038;-58
2021/05/25 04:07:10;;;;;;;0.68;0.20;;;11.40;80.80;;;;;;5034634;28;20346;-57
2021/05/25 04:09:36;;;;;;;;;;;11.50;80.60;;;;;;5023195;28;20107;-57
2021/05/25 04:12:02;;;;;;;1.05;0.40;;;11.50;80.40;;;;;;5026180;28;20393;-58
2021/05/25 04:14:27;;;;;;;;;;;11.50;80.70;;;;;;5026846;28;20482;-58
2021/05/25 04:16:53;;;;;;;0.63;0.30;;;11.40;80.40;;;;;;5028049;28;20004;-57
2021/05/25 04:19:18;;;;;;;;;;;11.40;80.30;;;;;;5021631;28;20037;-56
2021/05/25 04:21:44;;;;;;;0.60;0.30;;;11.40;79.90;;;;;;5023478;28;19913;-56
2021/05/25 04:24:09;;;;;;;;;;;11.40;80.00;;;;;;5023044;28;20048;-58
2021/05/25 04:26:35;;;;;;;2.08;0.65;;;11.40;80.00;;;;;;5022762;28;20866;-57
2021/05/25 04:29:00;;;;;;;;;;;11.40;80.20;;;;;;5021029;28;20026;-58
2021/05/25 04:31:25;;;;;;;1.40;0.35;;;11.40;80.20;;;;;;5025837;28;19931;-58
2021/05/25 04:33:51;;;;;;;;;;;11.40;80.00;;;;;;5020218;28;20037;-57
2021/05/25 04:36:18;;;;;;;4.78;2.15;;;11.40;80.00;;;;;;5026405;28;19913;-57
2021/05/25 04:38:44;;;;;;;6.72;2.60;;;11.40;80.10;;;;;;5024803;28;20064;-57
2021/05/25 04:41:10;;;;;;;;;;;11.50;80.20;;;;;;5024667;28;20589;-58
2021/05/25 04:43:36;;;;;;;4.13;2.00;;;11.50;80.00;;;;;;5025635;28;19920;-57
2021/05/25 04:46:01;;;;;;;;;;;11.50;80.00;;;;;;5026642;28;20033;-59
2021/05/25 04:48:27;;;;;;;5.40;2.78;;;11.50;80.00;;;;;;5021600;28;19917;-59
2021/05/25 04:50:52;;;;;;;;;;;11.50;80.10;;;;;;5023268;28;20525;-58
2021/05/25 04:53:18;;;;;;;2.70;0.90;;;11.60;80.20;;;;;;5023199;28;19952;-58
2021/05/25 04:55:43;;;;;;;;;;;11.70;80.30;;;;;;5025798;28;20100;-57
2021/05/25 04:58:10;;;;;;;2.55;0.50;;;11.80;80.10;;;;;;5023356;28;19936;-57
2021/05/25 05:00:35;;;;;;;0.40;0.30;;;12.00;79.80;;;;;;5025956;28;20029;-58
2021/05/25 05:03:01;;;;;;;;;;;12.50;79.20;;;;;;5025591;28;20056;-58
2021/05/25 05:05:27;;;;;;;5.22;2.58;;;13.70;75.60;;;;;;5024145;28;20511;-56
2021/05/25 05:07:52;;;;;;;;;;;14.90;73.20;;;;;;5023805;28;20505;-58
2021/05/25 05:10:19;;;;;;;10.70;1.77;;;16.00;70.00;;;;;;5024589;28;19909;-58
2021/05/25 05:12:45;;;;;;;10.80;1.55;;;17.00;65.70;;;;;;5023387;28;20393;-57
2021/05/25 05:15:12;;;;;;;;;;;17.60;63.60;;;;;;5023579;28;20135;-57
2021/05/25 05:17:37;;;;;;;3.60;0.70;;;18.10;61.30;;;;;;5019099;28;19971;-57
2021/05/25 05:20:03;;;;;;;;;;;18.60;60.80;;;;;;5023020;28;20490;-57
2021/05/25 05:22:29;;;;;;;3.53;0.60;;;18.90;58.80;;;;;;5024677;28;20369;-57
2021/05/25 05:24:55;;;;;;;;;;;19.20;57.40;;;;;;5025973;28;20037;-58
2021/05/25 05:27:20;;;;;;;1.60;0.55;;;18.40;58.50;;;;;;5026982;28;19913;-58
2021/05/25 05:29:46;;;;;;;3.22;0.40;;;17.50;59.90;;;;;;5041488;22;20053;-61
2021/05/25 05:32:12;;;;;;;;;;;16.70;61.70;;;;;;5023631;28;20083;-60
2021/05/25 05:34:37;;;;;;;4.35;0.43;;;16.00;63.60;;;;;;5025839;28;19913;-61
2021/05/25 05:37:03;;;;;;;;;;;15.80;64.60;;;;;;5025831;28;20029;-61
2021/05/25 05:39:29;;;;;;;1.98;0.28;;;15.40;65.80;;;;;;5024031;28;19913;-59
2021/05/25 05:41:55;;;;;;;;;;;15.30;66.50;;;;;;5024313;28;20033;-60
2021/05/25 05:44:20;;;;;;;0.82;0.30;;;15.30;67.20;;;;;;5025406;28;19958;-61
2021/05/25 05:46:46;;;;;;;;;;;15.20;67.20;;;;;;5026051;28;20053;-61
2021/05/25 05:49:11;;;;;;;0.68;0.40;;;15.10;67.30;;;;;;5023656;28;19913;-62
2021/05/25 05:51:37;;;;;;;;;;;14.90;67.00;;;;;;5026736;28;20036;-60
2021/05/25 05:54:03;;;;;;;0.47;0.30;;;14.70;67.00;;;;;;5024807;28;19913;-61
2021/05/25 05:56:28;;;;;;;2.30;0.30;;;14.60;67.90;;;;;;5026880;28;20025;-61
2021/05/25 05:58:54;;;;;;;2.20;0.80;;;14.50;67.80;;;;;;5023351;28;20536;-60
2021/05/25 06:01:19;;;;;;;;;;;14.50;67.80;;;;;;5020795;28;20046;-61
2021/05/25 06:03:45;;;;;;;1.67;0.40;;;14.50;68.60;;;;;;5023410;28;20368;-60
2021/05/25 06:06:12;;;;;;;4.03;0.30;;;14.50;67.90;;;;;;5024918;28;20076;-60
2021/05/25 06:08:39;;;;;;;1.40;0.60;;;14.50;67.90;;;;;;5022499;28;20100;-59
2021/05/25 06:11:04;;;;;;;1.90;0.60;;;14.50;68.20;;;;;;5021373;28;20088;-61
2021/05/25 06:13:30;;;;;;;;;;;14.50;68.30;;;;;;5024959;28;20033;-60
2021/05/25 06:16:02;;;;;;;1.85;0.30;;;14.50;68.70;;;;;;5019911;28;19913;-59
2021/05/25 06:18:28;;;;;;;0.30;0.25;;;14.60;67.70;;;;;;5017831;28;20390;-59
2021/05/25 06:20:54;;;;;;;3.65;0.90;;;14.60;68.40;;;;;;5017523;28;20055;-60
2021/05/25 06:23:20;;;;;;;;;;;14.60;68.20;;;;;;5013278;28;20529;-60
2021/05/25 06:25:45;;;;;;;4.72;0.40;;;14.50;68.20;;;;;;5022130;28;19916;-60
2021/05/25 06:28:11;;;;;;;0.77;0.28;;;14.50;67.80;;;;;;5021079;28;20041;-61
2021/05/25 06:30:37;;;;;;;0.68;0.20;;;14.30;68.10;;;;;;5023569;28;20362;-60
2021/05/25 06:33:03;;;;;;;2.58;0.32;;;14.20;68.20;;;;;;5037390;28;20034;-60
2021/05/25 06:35:29;;;;;;;;;;;14.10;68.50;;;;;;5017203;28;20090;-61
2021/05/25 06:37:54;;;;;;;0.85;0.20;;;14.00;68.60;;;;;;5021776;28;19908;-60
2021/05/25 06:40:20;;;;;;;;;;;14.00;69.10;;;;;;5018348;28;20041;-60
2021/05/25 06:42:46;;;;;;;0.40;0.30;;;14.10;68.60;;;;;;5021285;28;20370;-60
2021/05/25 06:45:11;;;;;;;;;;;14.20;67.80;;;;;;5021438;28;20498;-61
2021/05/25 06:47:38;;;;;;;0.65;0.20;;;14.20;68.20;;;;;;5022778;28;20002;-59
2021/05/25 06:50:08;;;;;;;1.88;0.25;;;14.30;67.40;;;;;;5021180;28;20032;-60
2021/05/25 06:52:34;;;;;;;1.27;0.22;;;14.30;66.90;;;;;;5020261;28;20108;-61
2021/05/25 06:55:02;;;;;;;0.88;0.55;;;14.30;66.80;;;;;;5021110;28;20033;-61
2021/05/25 06:57:28;;;;;;;3.65;0.40;;;14.40;66.90;;;;;;5016157;28;20075;-61
2021/05/25 06:59:53;;;;;;;;;;;14.50;66.60;;;;;;5019046;28;20445;-61
2021/05/25 07:02:23;;;;;;;1.13;0.20;;;14.50;66.30;;;;;;5017669;28;19932;-61
2021/05/25 07:04:52;;;;;;;3.95;0.65;;;14.40;65.40;;;;;;5018610;28;20652;-61
2021/05/25 07:07:18;;;;;;;3.63;0.40;;;14.40;65.60;;;;;;5019862;28;20041;-61
2021/05/25 07:09:44;;;;;;;;;;;14.30;65.40;;;;;;5022440;28;20021;-61
2021/05/25 07:12:10;;;;;;;1.35;0.30;;;14.30;65.50;;;;;;5017890;28;19956;-61
2021/05/25 07:14:36;;;;;;;2.05;0.40;;;14.30;66.10;;;;;;5017878;28;20076;-60
2021/05/25 07:17:02;;;;;;;;;;;14.40;66.50;;;;;;5022169;28;20401;-61
2021/05/25 07:19:27;;;;;;;5.03;0.70;;;14.30;66.30;;;;;;5019277;28;19912;-61
2021/05/25 07:21:53;;;;;;;;;;;14.30;66.10;;;;;;5022635;28;20567;-61
2021/05/25 07:24:18;;;;;;;2.50;0.30;;;14.20;66.60;;;;;;5020922;28;20374;-61
2021/05/25 07:26:44;;;;;;;;;;;14.10;66.70;;;;;;5022810;28;20481;-61
2021/05/25 07:29:09;;;;;;;4.53;0.38;;;14.00;66.60;;;;;;5035918;28;19924;-61
2021/05/25 07:31:35;;;;;;;;;;;14.10;66.90;;;;;;5021529;28;20029;-61
2021/05/25 07:34:00;;;;;;;4.55;0.57;;;14.10;67.10;;;;;;5020471;28;19917;-61
2021/05/25 07:36:26;;;;;;;;;;;14.10;66.90;;;;;;5018912;28;20064;-60
2021/05/25 07:38:51;;;;;;;1.10;0.35;;;14.10;67.10;;;;;;5020705;28;19913;-61
2021/05/25 07:41:17;;;;;;;2.03;0.75;;;14.10;66.70;;;;;;5019808;28;20041;-61
2021/05/25 07:43:44;;;;;;;;;;;14.10;66.70;;;;;;5021051;28;20026;-60
2021/05/25 07:46:10;;;;;;;5.88;0.40;;;14.10;66.40;;;;;;5020809;28;20358;-61
2021/05/25 07:48:35;;;;;;;;;;;14.20;66.50;;;;;;5024236;28;20043;-61
2021/05/25 07:51:01;;;;;;;1.33;0.35;;;14.20;66.50;;;;;;5023702;28;19915;-61
2021/05/25 07:53:26;;;;;;;;;;;14.20;66.00;;;;;;5023134;28;20446;-61
2021/05/25 07:55:52;;;;;;;0.77;0.43;;;14.20;66.40;;;;;;5024316;28;19947;-61
2021/05/25 07:58:18;;;;;;;;;;;14.20;66.60;;;;;;5025039;28;20040;-59
2021/05/25 08:00:43;;;;;;;8.50;0.43;;;14.20;66.40;;;;;;5023307;28;19996;-61
2021/05/25 08:03:10;;;;;;;;;;;14.30;66.40;;;;;;5022167;28;20065;-59
2021/05/25 08:05:36;;;;;;;2.00;0.32;;;14.30;65.80;;;;;;5023694;28;19916;-61
2021/05/25 08:08:02;;;;;;;;;;;14.30;66.10;;;;;;5026623;28;20038;-60
2021/05/25 08:10:29;;;;;;;0.47;0.30;;;14.30;66.20;;;;;;5026341;28;19935;-61
2021/05/25 08:12:54;;;;;;;0.98;0.30;;;14.50;65.90;;;;;;5025686;28;20606;-60
2021/05/25 08:15:21;;;;;;;;;;;14.70;66.00;;;;;;5025814;28;20036;-61
2021/05/25 08:17:55;;;;;;;1.45;0.50;;;14.80;65.30;;;;;;5026295;28;19909;-61
2021/05/25 08:20:21;;;;;;;0.70;0.40;;;14.90;64.00;;;;;;5022643;28;20030;-61
2021/05/25 08:22:52;;;;;;;2.72;0.57;;;14.90;63.40;;;;;;5025142;28;20405;-59
2021/05/25 08:25:19;;;;;;;2.40;0.38;;;14.80;62.90;;;;;;5025555;28;20029;-59
2021/05/25 08:27:46;;;;;;;3.30;0.52;;;14.60;62.10;;;;;;5025945;28;20025;-59
2021/05/25 08:30:13;;;;;;;1.45;0.20;;;14.50;63.00;;;;;;5021751;28;20041;-61
2021/05/25 08:32:38;;;;;;;0.47;0.20;;;14.50;62.40;;;;;;5027395;28;20056;-59
2021/05/25 08:35:04;;;;;;;;;;;14.50;61.90;;;;;;5020102;28;20067;-61
2021/05/25 08:37:32;;;;;;;4.28;0.40;;;14.50;62.20;;;;;;5021130;28;19912;-61
2021/05/25 08:39:58;;;;;;;1.65;0.30;;;14.70;62.50;;;;;;5023613;28;20055;-62
2021/05/25 08:42:23;;;;;;;;;;;14.80;61.60;;;;;;5026328;28;20072;-61
2021/05/25 08:44:49;;;;;;;5.30;0.43;;;14.80;61.30;;;;;;5022145;28;19917;-61
2021/05/25 08:47:16;;;;;;;;;;;15.00;62.10;;;;;;5024464;28;20091;-59
2021/05/25 08:49:41;;;;;;;1.95;0.28;;;15.10;61.60;;;;;;5021822;28;19917;-59
2021/05/25 08:52:08;;;;;;;;;;;15.20;60.60;;;;;;5021564;28;20057;-59
2021/05/25 08:54:34;;;;;;;1.55;0.20;;;15.40;60.80;;;;;;5023060;28;19916;-62
2021/05/25 08:56:59;;;;;;;0.43;0.30;;;15.50;59.30;;;;;;5035670;28;20520;-59
2021/05/25 08:59:25;;;;;;;3.80;0.40;;;15.60;60.20;;;;;;5023499;28;20389;-61
2021/05/25 09:01:51;;;;;;;0.50;0.30;;;15.70;58.80;;;;;;5022545;28;20033;-61
2021/05/25 09:04:17;;;;;;;;;;;15.80;58.10;;;;;;5023662;28;20036;-60
2021/05/25 09:06:49;;;;;;;3.20;0.30;;;15.70;59.10;;;;;;5020501;28;20011;-61
2021/05/25 09:09:19;;;;;;;2.58;0.40;;;15.70;59.60;;;;;;5016936;28;20623;-61
2021/05/25 09:12:06;;;;;;;0.60;0.30;;;15.60;59.40;;;;;;5024095;28;20437;-61
2021/05/25 09:14:33;;;;;;;0.70;0.20;;;15.50;59.00;;;;;;5023285;28;20037;-61
2021/05/25 09:17:15;;;;;;;0.75;0.40;;;15.60;59.60;;;;;;5022199;28;20449;-60
2021/05/25 09:19:55;;;;;;;0.50;0.10;;;15.70;58.90;;;;;;5021774;28;20397;-60
2021/05/25 09:22:41;;;;;;;0.50;0.30;;;15.80;58.70;;;;;;5022255;28;20037;-61
2021/05/25 09:25:13;;;;;;;0.60;0.30;;;15.80;58.70;;;;;;5020589;28;20025;-60
2021/05/25 09:27:43;;;;;;;2.95;0.32;;;15.80;59.20;;;;;;5022169;28;20272;-60
2021/05/25 09:30:19;;;;;;;0.70;0.22;;;15.70;59.60;;;;;;5020877;28;20033;-61
2021/05/25 09:32:46;;;;;;;5.35;0.30;;;15.70;59.20;;;;;;5023624;28;20029;-61
2021/05/25 09:35:13;;;;;;;2.38;0.35;;;15.70;58.90;;;;;;5022196;28;20167;-59
2021/05/25 09:37:47;;;;;;;0.35;0.15;;;15.80;58.70;;;;;;5021307;28;20033;-60
2021/05/25 09:40:15;;;;;;;2.40;0.50;;;15.90;58.60;;;;;;5023849;28;20489;-61
2021/05/25 09:42:41;;;;;;;4.25;0.30;;;15.90;58.30;;;;;;5021806;28;20542;-59
2021/05/25 09:45:12;;;;;;;4.78;0.28;;;15.70;58.80;;;;;;5022500;28;20021;-61
2021/05/25 09:47:53;;;;;;;1.92;0.25;;;15.50;60.10;;;;;;5024885;28;20026;-61
2021/05/25 09:50:20;;;;;;;0.90;0.30;;;15.20;63.50;;;;;;5024120;28;20018;-60
2021/05/25 09:53:11;;;;;;;0.40;0.20;;;15.00;64.90;;;;;;5021771;28;20069;-60
2021/05/25 09:56:00;;;;;;;0.65;0.40;;;14.90;65.60;;;;;;5023119;28;20090;-61
2021/05/25 09:58:39;;;;;;;4.32;0.52;;;15.00;65.60;;;;;;5020504;28;20022;-59
2021/05/25 10:01:07;;;;;;;2.08;0.10;;;15.10;64.90;;;;;;5024374;28;20120;-60
2021/05/25 10:03:41;;;;;;;3.75;0.30;;;15.30;62.00;;;;;;5025116;28;20061;-60
2021/05/25 10:06:07;;;;;;;2.15;0.30;;;15.30;60.70;;;;;;5020858;28;20475;-59
2021/05/25 10:08:33;;;;;;;4.68;0.40;;;15.60;60.40;;;;;;5023240;28;20056;-59
2021/05/25 10:10:59;;;;;;;1.17;0.30;;;15.70;59.70;;;;;;5039236;28;20029;-59
2021/05/25 10:13:27;;;;;;;1.17;0.20;;;15.90;62.50;;;;;;5022369;28;20030;-58
2021/05/25 10:15:53;;;;;;;4.63;0.63;;;15.90;64.80;;;;;;5023805;28;20092;-58
2021/05/25 10:21:07;;;;;;;5.97;0.40;;;15.60;67.70;;;;;;5018886;28;20088;-59
2021/05/25 10:23:34;;;;;;;30.92;1.48;;;15.30;69.30;;;;;;5025113;28;20437;-59
2021/05/25 10:26:18;;;;;;;72.10;5.65;;;15.00;71.90;;;;;;5025419;28;20022;-59
2021/05/25 10:28:51;;;;;;;29.70;2.85;;;14.50;73.90;;;;;;5022683;28;20032;-59
2021/05/25 10:31:30;;;;;;;12.68;2.03;;;14.10;74.30;;;;;;5022477;28;20560;-59
2021/05/25 10:34:22;;;;;;;5.38;0.52;;;13.80;75.00;;;;;;5025678;28;20409;-59
2021/05/25 10:36:49;;;;;;;34.53;2.80;;;13.50;76.70;;;;;;5023748;28;20040;-59
2021/05/25 10:39:39;;;;;;;28.48;2.03;;;13.40;76.50;;;;;;5021737;28;20087;-59
2021/05/25 10:42:21;;;;;;;31.23;2.80;;;13.40;75.80;;;;;;5021438;28;20113;-59
2021/05/25 10:44:52;;;;;;;33.22;4.70;;;13.30;77.00;;;;;;5023252;28;20032;-59
2021/05/25 10:47:23;;;;;;;15.85;1.25;;;13.30;75.90;;;;;;5024340;28;20092;-58
2021/05/25 10:49:57;;;;;;;42.33;4.53;;;13.40;75.50;;;;;;5019653;28;20026;-59
2021/05/25 10:52:24;;;;;;;28.67;3.47;;;13.40;74.80;;;;;;5022728;28;20025;-59
2021/05/25 10:54:54;;;;;;;175.23;18.77;;;13.50;74.50;;;;;;5021057;28;20022;-59
2021/05/25 10:57:29;;;;;;;36.20;3.47;;;13.60;74.40;;;;;;5019763;28;20053;-59
2021/05/25 11:00:05;;;;;;;34.95;2.63;;;13.60;73.60;;;;;;5024265;28;20038;-59
2021/05/25 11:02:42;;;;;;;21.27;2.03;;;13.70;74.10;;;;;;5025351;28;20112;-59
2021/05/25 11:05:27;;;;;;;19.23;0.88;;;13.80;74.10;;;;;;5025656;28;20410;-59
2021/05/25 11:07:56;;;;;;;32.25;2.20;;;13.90;73.40;;;;;;5025282;28;20025;-59
2021/05/25 11:10:27;;;;;;;26.27;1.80;;;14.10;73.40;;;;;;5026001;28;20029;-59
2021/05/25 11:13:15;;;;;;;13.13;0.70;;;14.30;73.00;;;;;;5024846;28;20183;-59
2021/05/25 11:16:20;;;;;;;19.35;0.95;;;14.50;73.20;;;;;;5025584;28;20025;-59
2021/05/25 11:19:01;;;;;;;25.98;2.72;;;14.60;72.90;;;;;;5026141;28;20029;-59
2021/05/25 11:24:32;;;;;;;26.48;1.90;;;14.60;72.90;;;;;;5029581;28;20124;-58
2021/05/25 11:27:04;;;;;;;15.82;1.60;;;14.50;72.50;;;;;;5030287;28;20022;-59
2021/05/25 11:29:31;;;;;;;3.63;0.40;;;14.40;70.30;;;;;;5048913;22;20053;-55
2021/05/25 11:32:01;;;;;;;10.15;0.85;;;14.10;70.40;;;;;;4992101;28;20080;-56
2021/05/25 11:34:27;;;;;;;3.85;0.63;;;13.60;72.10;;;;;;4995079;28;20522;-56
2021/05/25 11:37:07;;;;;;;3.53;0.70;;;13.10;74.00;;;;;;5006043;28;20490;-58
2021/05/25 11:39:34;;;;;;;14.60;0.85;;;12.70;76.50;;;;;;4996556;28;20494;-59
2021/05/25 11:42:07;;;;;;;6.57;0.65;;;12.30;78.60;;;;;;4991023;28;20509;-58
2021/05/25 11:44:35;;;;;;;12.25;0.52;;;12.10;78.50;;;;;;4992530;28;20028;-57
2021/05/25 11:47:06;;;;;;;9.00;0.77;;;11.90;79.30;;;;;;4990510;28;20096;-56
2021/05/25 11:49:37;;;;;;;8.05;0.75;;;11.70;81.00;;;;;;4991824;28;20538;-56
2021/05/25 11:52:25;;;;;;;9.68;1.15;;;11.60;82.10;;;;;;4994805;28;20042;-56
2021/05/25 11:55:03;;;;;;;29.35;3.97;;;11.50;83.20;;;;;;4991365;28;20418;-59
2021/05/25 11:57:30;;;;;;;23.90;1.95;;;11.50;83.30;;;;;;4991996;28;20415;-59
2021/05/25 11:59:58;;;;;;;17.65;1.30;;;11.50;84.10;;;;;;4995820;28;20518;-59
2021/05/25 12:02:32;;;;;;;39.72;2.78;;;11.60;84.70;;;;;;4993814;28;20229;-58
2021/05/25 12:05:01;;;;;;;32.88;2.60;;;11.60;84.00;;;;;;4993038;28;20034;-58
2021/05/25 12:07:27;;;;;;;39.03;4.47;;;11.80;84.60;;;;;;4991280;28;20026;-58
2021/05/25 12:09:53;;;;;;;;;;;11.90;84.30;;;;;;4990987;28;20018;-59
2021/05/25 12:12:23;;;;;;;19.85;1.83;;;12.00;84.40;;;;;;4990761;28;19983;-58
2021/05/25 12:14:49;;;;;;;5.75;0.82;;;12.20;84.60;;;;;;5000176;28;20038;-58
2021/05/25 12:17:19;;;;;;;;;;;12.40;83.50;;;;;;4990731;28;20032;-57
2021/05/25 12:19:51;;;;;;;23.67;1.63;;;12.60;84.60;;;;;;4989879;28;19929;-57
2021/05/25 12:22:17;;;;;;;10.95;1.23;;;12.80;84.90;;;;;;4990476;28;20034;-59
2021/05/25 12:24:43;;;;;;;;;;;13.00;83.30;;;;;;4999261;28;20060;-56
2021/05/25 12:27:09;;;;;;;10.33;1.07;;;13.20;84.00;;;;;;4996191;28;20634;-55
2021/05/25 12:29:35;;;;;;;13.98;2.65;;;13.30;83.50;;;;;;4989896;28;20078;-58
2021/05/25 12:32:00;;;;;;;;;;;13.50;82.30;;;;;;4994653;28;20506;-58
2021/05/25 12:34:26;;;;;;;48.88;5.22;;;13.70;81.50;;;;;;4990195;28;19948;-57
2021/05/25 12:36:53;;;;;;;;;;;13.80;81.50;;;;;;4992562;28;20036;-59
2021/05/25 12:39:32;;;;;;;10.77;0.75;;;13.90;81.10;;;;;;4995742;28;20004;-59
2021/05/25 12:41:57;;;;;;;38.47;3.22;;;14.00;81.20;;;;;;4992511;28;20085;-59
2021/05/25 12:44:41;;;;;;;;;;;14.20;81.10;;;;;;4991336;28;20034;-59
2021/05/25 12:47:08;;;;;;;22.35;2.45;;;14.40;80.70;;;;;;4991797;28;20011;-59
2021/05/25 12:49:38;;;;;;;7.53;1.40;;;14.60;79.90;;;;;;4989934;28;20034;-58
2021/05/25 12:52:26;;;;;;;6.40;1.08;;;14.70;79.20;;;;;;4991904;28;20026;-59
2021/05/25 12:55:07;;;;;;;11.25;1.13;;;15.10;78.30;;;;;;4994713;28;20030;-59
2021/05/25 12:57:48;;;;;;;36.35;3.22;;;15.30;77.70;;;;;;4989324;28;20117;-58
2021/05/25 13:00:36;;;;;;;21.63;2.15;;;15.40;77.50;;;;;;4988423;28;20053;-58
2021/05/25 13:03:04;;;;;;;9.48;1.17;;;15.40;76.40;;;;;;4990562;28;20056;-58
2021/05/25 13:05:36;;;;;;;18.08;2.45;;;15.40;75.70;;;;;;4992576;28;20363;-58
2021/05/25 13:10:39;;;;;;;5.10;1.45;;;15.40;74.70;;;;;;4995106;28;20022;-59
2021/05/25 13:13:19;;;;;;;53.55;5.90;;;15.30;74.30;;;;;;4999801;28;20030;-59
2021/05/25 13:15:52;;;;;;;22.50;1.70;;;15.20;73.50;;;;;;4992502;28;20041;-58
2021/05/25 13:18:20;;;;;;;6.18;0.50;;;14.90;71.00;;;;;;4989629;28;20092;-59
2021/05/25 13:20:47;;;;;;;1.88;0.40;;;14.60;74.80;;;;;;4992554;28;20030;-59
2021/05/25 13:23:31;;;;;;;3.83;0.50;;;14.00;76.60;;;;;;4992030;28;20125;-59